createdAt,value
2022-10-08T00:01:12.578Z,100059.94
2022-10-08T00:03:43.601Z,100054.88
2022-10-08T00:06:18.197Z,100064.25
2022-10-08T00:08:50.065Z,100058.00
2022-10-08T00:11:20.939Z,100061.19
2022-10-08T00:13:50.426Z,100057.84
2022-10-08T00:16:30.007Z,100061.63
2022-10-08T00:19:03.842Z,100050.41
2022-10-08T00:21:36.977Z,100048.03
2022-10-08T00:24:05.741Z,100049.97
2022-10-08T00:26:39.816Z,100045.34
2022-10-08T00:29:13.593Z,100019.09
2022-10-08T00:31:42.164Z,100041.41
2022-10-08T00:34:11.594Z,100047.34
2022-10-08T00:36:40.405Z,100039.09
2022-10-08T00:39:16.825Z,100032.47
2022-10-08T00:41:45.923Z,100038.34
2022-10-08T00:44:47.295Z,100035.00
2022-10-08T00:47:22.546Z,100036.19
2022-10-08T00:49:51.565Z,100037.22
2022-10-08T00:52:19.843Z,100027.41
2022-10-08T00:54:46.861Z,100029.56
2022-10-08T00:57:14.055Z,100023.03
2022-10-08T00:59:41.135Z,100021.19
2022-10-08T01:02:09.129Z,100025.72
2022-10-08T01:04:37.792Z,100013.66
2022-10-08T01:07:23.562Z,100020.19
2022-10-08T01:10:19.764Z,100020.72
2022-10-08T01:12:47.544Z,100014.63
2022-10-08T01:15:31.971Z,100021.38
2022-10-08T01:18:32.407Z,100002.41
2022-10-08T01:21:10.133Z,100014.16
2022-10-08T01:23:47.492Z,100010.44
2022-10-08T01:26:46.610Z,100027.34
2022-10-08T01:29:23.175Z,100011.81
2022-10-08T01:32:01.961Z,100020.66
2022-10-08T01:34:45.098Z,100021.41
2022-10-08T01:37:21.652Z,100000.78
2022-10-08T01:39:52.529Z,100004.44
2022-10-08T01:42:23.416Z,100010.53
2022-10-08T01:44:55.162Z,99995.91
2022-10-08T01:47:27.982Z,100008.47
2022-10-08T01:50:07.747Z,100006.69
2022-10-08T01:52:44.040Z,100002.75
2022-10-08T01:55:17.038Z,100011.13
2022-10-08T01:57:45.661Z,99999.31
2022-10-08T02:00:14.871Z,100005.06
2022-10-08T02:02:43.175Z,100011.16
2022-10-08T02:05:11.730Z,100012.78
2022-10-08T02:07:42.515Z,100010.13
2022-10-08T02:10:18.881Z,100010.75
2022-10-08T02:12:46.317Z,99997.19
2022-10-08T02:15:23.702Z,100016.59
2022-10-08T02:18:07.874Z,100002.09
2022-10-08T02:20:39.913Z,100003.06
2022-10-08T02:23:53.352Z,100009.75
2022-10-08T02:26:32.069Z,100011.47
2022-10-08T02:29:25.176Z,100013.25
2022-10-08T02:32:02.038Z,99970.00
2022-10-08T02:34:43.990Z,100020.00
2022-10-08T02:37:13.153Z,100020.88
2022-10-08T02:39:44.056Z,100012.09
2022-10-08T02:42:15.544Z,100030.25
2022-10-08T02:44:49.680Z,100010.25
2022-10-08T02:47:19.890Z,100003.97
2022-10-08T02:49:56.235Z,100011.19
2022-10-08T02:52:27.371Z,100018.31
2022-10-08T02:54:56.484Z,100010.81
2022-10-08T02:57:41.047Z,100005.63
2022-10-08T03:00:08.659Z,100006.78
2022-10-08T03:02:47.437Z,100012.22
2022-10-08T03:05:19.371Z,100015.56
2022-10-08T03:07:48.890Z,100003.75
2022-10-08T03:10:15.844Z,100000.88
2022-10-08T03:12:42.793Z,99999.28
2022-10-08T03:15:13.705Z,99998.00
2022-10-08T03:17:45.058Z,100002.44
2022-10-08T03:20:12.630Z,100003.31
2022-10-08T03:22:39.963Z,100002.19
2022-10-08T03:25:07.119Z,100006.56
2022-10-08T03:27:35.337Z,99996.69
2022-10-08T03:30:04.011Z,99997.56
2022-10-08T03:32:30.830Z,100005.00
2022-10-08T03:34:57.766Z,100003.94
2022-10-08T03:37:24.971Z,100008.31
2022-10-08T03:39:52.270Z,100008.94
2022-10-08T03:42:19.276Z,100009.75
2022-10-08T03:44:46.055Z,100011.75
2022-10-08T03:47:13.040Z,100007.41
2022-10-08T03:49:41.212Z,100009.88
2022-10-08T03:52:08.249Z,99999.16
2022-10-08T03:54:36.093Z,100002.50
2022-10-08T03:57:03.607Z,100004.72
2022-10-08T03:59:30.503Z,99991.31
2022-10-08T04:01:57.452Z,99996.53
2022-10-08T04:04:25.718Z,99999.56
2022-10-08T04:06:52.873Z,100002.59
2022-10-08T04:09:19.608Z,99998.72
2022-10-08T04:11:46.763Z,99992.41
2022-10-08T04:14:13.536Z,100002.53
2022-10-08T04:16:40.666Z,99998.16
2022-10-08T04:19:07.468Z,99995.41
2022-10-08T04:21:34.315Z,100005.53
2022-10-08T04:24:01.115Z,99993.81
2022-10-08T04:26:28.341Z,100007.53
2022-10-08T04:28:55.224Z,100001.22
2022-10-08T04:31:23.561Z,100011.34
2022-10-08T04:33:52.126Z,100007.06
2022-10-08T04:36:22.081Z,100007.88
2022-10-08T04:38:49.969Z,100003.75
2022-10-08T04:41:24.518Z,100005.03
2022-10-08T04:43:52.633Z,100000.66
2022-10-08T04:46:21.318Z,99992.19
2022-10-08T04:48:52.685Z,100000.94
2022-10-08T04:51:21.061Z,99997.09
2022-10-08T04:53:47.846Z,99994.88
2022-10-08T04:56:17.875Z,100000.28
2022-10-08T04:58:45.244Z,99998.06
2022-10-08T05:01:14.730Z,99993.38
2022-10-08T05:03:46.366Z,99990.88
2022-10-08T05:06:15.003Z,100000.41
2022-10-08T05:08:41.905Z,100000.94
2022-10-08T05:11:09.211Z,100001.47
2022-10-08T05:13:36.134Z,99998.44
2022-10-08T05:16:14.179Z,99997.63
2022-10-08T05:18:42.009Z,100001.09
2022-10-08T05:21:12.360Z,99992.50
2022-10-08T05:23:40.022Z,99986.66
2022-10-08T05:26:12.915Z,99999.94
2022-10-08T05:28:40.175Z,99994.97
2022-10-08T05:31:07.094Z,99995.63
2022-10-08T05:33:36.161Z,100005.00
2022-10-08T05:36:05.762Z,100004.53
2022-10-08T05:38:35.081Z,100006.63
2022-10-08T05:41:24.514Z,100013.78
2022-10-08T05:43:53.685Z,100001.19
2022-10-08T05:46:21.075Z,100015.75
2022-10-08T05:48:48.186Z,100014.41
2022-10-08T05:51:17.675Z,100015.44
2022-10-08T05:53:47.193Z,99987.78
2022-10-08T05:56:16.622Z,100006.28
2022-10-08T05:58:44.268Z,99996.69
2022-10-08T06:01:16.615Z,100012.06
2022-10-08T06:03:44.037Z,100007.22
2022-10-08T06:06:12.003Z,100005.91
2022-10-08T06:08:39.101Z,100015.31
2022-10-08T06:11:06.458Z,100012.38
2022-10-08T06:13:34.527Z,100012.41
2022-10-08T06:16:07.322Z,100022.53
2022-10-08T06:18:40.114Z,100006.97
2022-10-08T06:21:12.177Z,100023.78
2022-10-08T06:23:45.465Z,100026.34
2022-10-08T06:26:12.680Z,100009.97
2022-10-08T06:28:40.190Z,100022.13
2022-10-08T06:31:08.414Z,100024.97
2022-10-08T06:33:35.351Z,100023.91
2022-10-08T06:36:07.650Z,100019.50
2022-10-08T06:38:34.923Z,100014.59
2022-10-08T06:41:02.124Z,100013.59
2022-10-08T06:43:29.454Z,100005.56
2022-10-08T06:45:59.921Z,99997.53
2022-10-08T06:48:27.656Z,100010.78
2022-10-08T06:51:03.317Z,100008.09
2022-10-08T06:53:30.844Z,100005.53
2022-10-08T06:56:03.108Z,100015.72
2022-10-08T06:58:30.273Z,100006.63
2022-10-08T07:01:11.140Z,100011.72
2022-10-08T07:03:38.397Z,100013.03
2022-10-08T07:06:09.134Z,100018.59
2022-10-08T07:08:36.473Z,100012.47
2022-10-08T07:11:07.762Z,100011.66
2022-10-08T07:13:34.878Z,100009.56
2022-10-08T07:16:09.214Z,100005.44
2022-10-08T07:18:37.985Z,100005.44
2022-10-08T07:21:06.310Z,99992.03
2022-10-08T07:23:33.774Z,99998.88
2022-10-08T07:26:03.495Z,100001.13
2022-10-08T07:28:34.531Z,100008.28
2022-10-08T07:31:11.837Z,99997.41
2022-10-08T07:33:40.745Z,99989.88
2022-10-08T07:36:09.354Z,99993.41
2022-10-08T07:38:37.140Z,99988.06
2022-10-08T07:41:04.362Z,99986.53
2022-10-08T07:43:31.318Z,99977.09
2022-10-08T07:45:58.499Z,99960.84
2022-10-08T07:48:25.371Z,99976.28
2022-10-08T07:50:52.338Z,99979.38
2022-10-08T07:53:19.218Z,99970.75
2022-10-08T07:55:46.262Z,99989.44
2022-10-08T07:58:13.826Z,99983.94
2022-10-08T08:00:41.213Z,99985.69
2022-10-08T08:03:13.430Z,99982.13
2022-10-08T08:05:40.699Z,99976.13
2022-10-08T08:08:07.590Z,99962.13
2022-10-08T08:10:34.542Z,99978.53
2022-10-08T08:13:01.438Z,99974.81
2022-10-08T08:15:28.420Z,99968.06
2022-10-08T08:17:55.210Z,99957.03
2022-10-08T08:20:22.126Z,99962.03
2022-10-08T08:22:49.319Z,99959.03
2022-10-08T08:25:16.557Z,99959.25
2022-10-08T08:27:43.601Z,99960.41
2022-10-08T08:30:11.006Z,99956.22
2022-10-08T08:32:37.927Z,99977.31
2022-10-08T08:35:05.138Z,99965.31
2022-10-08T08:37:32.133Z,99961.06
2022-10-08T08:39:59.055Z,99960.91
2022-10-08T08:42:26.707Z,99960.53
2022-10-08T08:45:00.426Z,99955.31
2022-10-08T08:47:33.110Z,99951.56
2022-10-08T08:50:15.454Z,99941.63
2022-10-08T08:52:43.653Z,99938.53
2022-10-08T08:55:20.296Z,99940.72
2022-10-08T08:58:03.015Z,99948.50
2022-10-08T09:00:41.865Z,99943.59
2022-10-08T09:03:26.753Z,99935.69
2022-10-08T09:05:57.808Z,99933.38
2022-10-08T09:08:32.033Z,99936.25
2022-10-08T09:11:04.145Z,99933.91
2022-10-08T09:13:47.923Z,99936.84
2022-10-08T09:16:16.099Z,99916.94
2022-10-08T09:18:48.550Z,99914.00
2022-10-08T09:21:16.265Z,99913.19
2022-10-08T09:23:43.668Z,99911.50
2022-10-08T09:26:22.153Z,99907.97
2022-10-08T09:28:57.088Z,99909.38
2022-10-08T09:31:27.044Z,99908.50
2022-10-08T09:34:15.747Z,99901.03
2022-10-08T09:37:03.411Z,99909.75
2022-10-08T09:39:33.911Z,99904.06
2022-10-08T09:42:17.720Z,99884.34
2022-10-08T09:44:56.747Z,99888.22
2022-10-08T09:47:26.336Z,99899.13
2022-10-08T09:50:07.311Z,99889.16
2022-10-08T09:52:36.776Z,99884.66
2022-10-08T09:55:08.895Z,99887.16
2022-10-08T09:57:46.124Z,99885.53
2022-10-08T10:00:26.335Z,99886.72
2022-10-08T10:02:55.942Z,99873.19
2022-10-08T10:05:28.763Z,99867.84
2022-10-08T10:07:55.914Z,99869.91
2022-10-08T10:10:40.066Z,99859.75
2022-10-08T10:13:12.597Z,99861.00
2022-10-08T10:16:04.494Z,99854.75
2022-10-08T10:18:43.883Z,99849.66
2022-10-08T10:21:18.057Z,99842.13
2022-10-08T10:23:53.577Z,99854.38
2022-10-08T10:26:27.526Z,99808.66
2022-10-08T10:29:18.862Z,99858.22
2022-10-08T10:32:07.177Z,99843.78
2022-10-08T10:34:38.732Z,99845.25
2022-10-08T10:37:22.314Z,99828.38
2022-10-08T10:40:03.723Z,99832.69
2022-10-08T10:42:37.989Z,99827.31
2022-10-08T10:45:13.727Z,99825.56
2022-10-08T10:47:40.979Z,99793.44
2022-10-08T10:50:43.547Z,99812.78
2022-10-08T10:53:22.147Z,99817.41
2022-10-08T10:56:13.667Z,99817.09
2022-10-08T10:58:52.511Z,99803.25
2022-10-08T11:01:54.701Z,99802.69
2022-10-08T11:04:40.250Z,99801.75
2022-10-08T11:07:25.569Z,99796.59
2022-10-08T11:10:04.635Z,99792.72
2022-10-08T11:12:31.689Z,99792.59
2022-10-08T11:15:08.584Z,99791.88
2022-10-08T11:17:56.391Z,99710.53
2022-10-08T11:20:42.082Z,99800.69
2022-10-08T11:23:40.887Z,99781.09
2022-10-08T11:26:22.656Z,99774.03
2022-10-08T11:29:01.379Z,99779.16
2022-10-08T11:31:40.371Z,99781.53
2022-10-08T11:34:21.674Z,99758.13
2022-10-08T11:36:54.839Z,99765.56
2022-10-08T11:39:55.216Z,99752.28
2022-10-08T11:42:25.381Z,99743.75
2022-10-08T11:44:52.339Z,99742.31
2022-10-08T11:47:44.303Z,99753.13
2022-10-08T11:50:24.822Z,99740.59
2022-10-08T11:52:54.133Z,99735.28
2022-10-08T11:55:26.748Z,99741.91
2022-10-08T11:58:09.756Z,99731.16
2022-10-08T12:00:41.770Z,99736.00
2022-10-08T12:03:51.494Z,99728.59
2022-10-08T12:06:25.265Z,99719.81
2022-10-08T12:09:04.478Z,99715.38
2022-10-08T12:11:39.888Z,99711.34
2022-10-08T12:14:13.125Z,99718.25
2022-10-08T12:16:49.392Z,99699.50
2022-10-08T12:19:37.695Z,99704.41
2022-10-08T12:22:25.321Z,99700.53
2022-10-08T12:24:54.083Z,99706.28
2022-10-08T12:27:22.613Z,99702.44
2022-10-08T12:30:06.073Z,99694.59
2022-10-08T12:32:53.112Z,99697.25
2022-10-08T12:35:34.057Z,99697.25
2022-10-08T12:38:09.054Z,99695.25
2022-10-08T12:40:57.493Z,99694.06
2022-10-08T12:43:42.323Z,99692.22
2022-10-08T12:46:30.268Z,99683.63
2022-10-08T12:49:18.466Z,99683.72
2022-10-08T12:52:10.521Z,99675.44
2022-10-08T12:54:45.590Z,99682.88
2022-10-08T12:57:17.165Z,99691.06
2022-10-08T12:59:44.088Z,99688.59
2022-10-08T13:02:43.901Z,99687.72
2022-10-08T13:05:24.770Z,99680.84
2022-10-08T13:07:51.846Z,99666.19
2022-10-08T13:10:22.682Z,99673.19
2022-10-08T13:13:04.759Z,99664.13
2022-10-08T13:15:34.048Z,99674.44
2022-10-08T13:18:21.084Z,99664.22
2022-10-08T13:21:03.185Z,99665.13
2022-10-08T13:23:40.730Z,99665.34
2022-10-08T13:26:45.183Z,99667.81
2022-10-08T13:29:24.378Z,99672.63
2022-10-08T13:31:56.390Z,99674.59
2022-10-08T13:34:27.554Z,99663.63
2022-10-08T13:36:58.561Z,99668.25
2022-10-08T13:39:51.803Z,99675.19
2022-10-08T13:42:21.787Z,99670.59
2022-10-08T13:44:48.983Z,99651.56
2022-10-08T13:47:18.630Z,99650.97
2022-10-08T13:49:46.603Z,99650.13
2022-10-08T13:52:22.306Z,99648.16
2022-10-08T13:54:52.975Z,99659.59
2022-10-08T13:57:20.027Z,99649.47
2022-10-08T13:59:46.900Z,99642.84
2022-10-08T14:02:14.661Z,99626.75
2022-10-08T14:04:42.019Z,99628.16
2022-10-08T14:07:30.503Z,99631.09
2022-10-08T14:10:00.583Z,99627.88
2022-10-08T14:12:32.480Z,99625.22
2022-10-08T14:15:01.084Z,99620.06
2022-10-08T14:17:28.149Z,99616.81
2022-10-08T14:19:55.629Z,99625.94
2022-10-08T14:22:23.271Z,99622.16
2022-10-08T14:24:50.297Z,99625.94
2022-10-08T14:27:17.560Z,99603.16
2022-10-08T14:29:44.491Z,99620.50
2022-10-08T14:32:11.939Z,99622.97
2022-10-08T14:34:39.481Z,99624.91
2022-10-08T14:37:06.995Z,99624.59
2022-10-08T14:39:33.923Z,99623.28
2022-10-08T14:42:00.871Z,99623.59
2022-10-08T14:44:27.957Z,99619.50
2022-10-08T14:46:55.033Z,99627.44
2022-10-08T14:49:22.298Z,99630.19
2022-10-08T14:51:49.328Z,99630.22
2022-10-08T14:54:18.153Z,99628.56
2022-10-08T14:56:46.259Z,99623.81
2022-10-08T14:59:13.754Z,99622.50
2022-10-08T15:01:41.105Z,99612.28
2022-10-08T15:04:08.191Z,99610.47
2022-10-08T15:06:35.320Z,99627.38
2022-10-08T15:09:02.250Z,99611.22
2022-10-08T15:11:29.311Z,99629.72
2022-10-08T15:13:56.174Z,99621.72
2022-10-08T15:16:23.721Z,99621.03
2022-10-08T15:18:50.732Z,99618.53
2022-10-08T15:21:18.954Z,99619.56
2022-10-08T15:23:45.788Z,99622.13
2022-10-08T15:26:15.960Z,99618.81
2022-10-08T15:28:44.835Z,99625.56
2022-10-08T15:31:13.521Z,99629.81
2022-10-08T15:33:42.598Z,99626.34
2022-10-08T15:36:36.276Z,99628.63
2022-10-08T15:39:15.172Z,99639.22
2022-10-08T15:41:45.111Z,99627.47
2022-10-08T15:44:22.375Z,99636.19
2022-10-08T15:46:59.090Z,99625.16
2022-10-08T15:49:40.505Z,99629.28
2022-10-08T15:52:12.435Z,99633.97
2022-10-08T15:54:40.654Z,99622.53
2022-10-08T15:57:09.503Z,99632.34
2022-10-08T15:59:36.990Z,99644.81
2022-10-08T16:02:05.089Z,99636.91
2022-10-08T16:04:32.061Z,99640.47
2022-10-08T16:06:59.174Z,99650.44
2022-10-08T16:09:26.054Z,99644.44
2022-10-08T16:11:55.429Z,99640.88
2022-10-08T16:14:26.378Z,99647.41
2022-10-08T16:16:53.950Z,99638.75
2022-10-08T16:19:24.339Z,99653.59
2022-10-08T16:21:53.707Z,99653.16
2022-10-08T16:24:20.824Z,99653.56
2022-10-08T16:26:48.953Z,99652.16
2022-10-08T16:29:17.550Z,99653.09
2022-10-08T16:31:45.885Z,99662.25
2022-10-08T16:34:37.449Z,99655.63
2022-10-08T16:37:05.008Z,99654.22
2022-10-08T16:39:59.604Z,99671.13
2022-10-08T16:42:26.600Z,99662.31
2022-10-08T16:44:53.342Z,99643.78
2022-10-08T16:47:23.151Z,99658.94
2022-10-08T16:49:49.933Z,99666.91
2022-10-08T16:52:16.734Z,99663.88
2022-10-08T16:54:43.588Z,99664.44
2022-10-08T16:57:10.498Z,99659.19
2022-10-08T16:59:37.494Z,99659.75
2022-10-08T17:02:04.335Z,99667.81
2022-10-08T17:04:38.911Z,99673.22
2022-10-08T17:07:07.562Z,99676.69
2022-10-08T17:09:35.477Z,99671.88
2022-10-08T17:12:02.527Z,99678.56
2022-10-08T17:14:31.190Z,99680.75
2022-10-08T17:16:58.082Z,99677.91
2022-10-08T17:19:24.962Z,99676.00
2022-10-08T17:21:52.101Z,99681.06
2022-10-08T17:24:18.954Z,99677.34
2022-10-08T17:26:45.810Z,99680.97
2022-10-08T17:29:13.162Z,99689.69
2022-10-08T17:31:40.598Z,99690.22
2022-10-08T17:34:07.845Z,99695.84
2022-10-08T17:36:37.731Z,99694.88
2022-10-08T17:39:07.523Z,99702.41
2022-10-08T17:41:36.526Z,99693.50
2022-10-08T17:44:05.878Z,99708.50
2022-10-08T17:46:36.395Z,99695.16
2022-10-08T17:49:03.902Z,99695.03
2022-10-08T17:51:31.270Z,99704.00
2022-10-08T17:54:07.510Z,99694.69
2022-10-08T17:56:35.069Z,99691.78
2022-10-08T17:59:05.087Z,99698.81
2022-10-08T18:01:35.143Z,99704.03
2022-10-08T18:04:04.772Z,99705.50
2022-10-08T18:06:33.095Z,99698.06
2022-10-08T18:09:02.479Z,99702.78
2022-10-08T18:11:31.277Z,99689.78
2022-10-08T18:13:58.827Z,99697.91
2022-10-08T18:16:25.799Z,99701.50
2022-10-08T18:18:52.934Z,99704.59
2022-10-08T18:21:20.384Z,99710.13
2022-10-08T18:23:48.467Z,99703.47
2022-10-08T18:26:18.090Z,99716.81
2022-10-08T18:28:46.602Z,99712.56
2022-10-08T18:31:15.678Z,99705.59
2022-10-08T18:33:45.774Z,99714.69
2022-10-08T18:36:22.635Z,99717.78
2022-10-08T18:38:57.395Z,99716.97
2022-10-08T18:41:27.685Z,99707.88
2022-10-08T18:43:59.416Z,99715.03
2022-10-08T18:46:28.493Z,99717.31
2022-10-08T18:48:55.829Z,99709.00
2022-10-08T18:51:28.488Z,99708.84
2022-10-08T18:53:56.972Z,99721.53
2022-10-08T18:56:34.403Z,99716.66
2022-10-08T18:59:04.554Z,99711.59
2022-10-08T19:01:35.033Z,99723.47
2022-10-08T19:04:04.458Z,99715.03
2022-10-08T19:06:35.016Z,99721.84
2022-10-08T19:09:03.302Z,99723.63
2022-10-08T19:11:37.713Z,99715.28
2022-10-08T19:14:10.991Z,99715.91
2022-10-08T19:16:39.684Z,99721.44
2022-10-08T19:19:09.757Z,99712.78
2022-10-08T19:21:38.731Z,99705.63
2022-10-08T19:24:07.203Z,99715.69
2022-10-08T19:26:34.318Z,99717.63
2022-10-08T19:29:01.156Z,99717.13
2022-10-08T19:31:30.901Z,99717.28
2022-10-08T19:34:08.096Z,99715.16
2022-10-08T19:36:37.656Z,99709.78
2022-10-08T19:39:04.847Z,99716.44
2022-10-08T19:41:31.981Z,99694.66
2022-10-08T19:43:59.554Z,99716.72
2022-10-08T19:46:27.826Z,99720.13
2022-10-08T19:48:58.012Z,99713.59
2022-10-08T19:51:26.631Z,99709.69
2022-10-08T19:53:54.439Z,99707.69
2022-10-08T19:56:22.764Z,99716.28
2022-10-08T19:58:56.051Z,99712.03
2022-10-08T20:01:28.812Z,99719.94
2022-10-08T20:03:57.710Z,99716.31
2022-10-08T20:06:29.501Z,99714.19
2022-10-08T20:09:08.204Z,99717.88
2022-10-08T20:11:35.242Z,99704.38
2022-10-08T20:14:21.532Z,99714.41
2022-10-08T20:16:48.736Z,99714.72
2022-10-08T20:19:19.431Z,99719.59
2022-10-08T20:21:47.739Z,99721.84
2022-10-08T20:24:15.249Z,99720.22
2022-10-08T20:26:43.471Z,99707.66
2022-10-08T20:29:16.075Z,99699.25
2022-10-08T20:31:46.701Z,99719.75
2022-10-08T20:34:19.474Z,99715.97
2022-10-08T20:36:47.521Z,99721.31
2022-10-08T20:39:16.114Z,99709.91
2022-10-08T20:41:43.278Z,99704.50
2022-10-08T20:44:10.681Z,99720.09
2022-10-08T20:46:38.333Z,99708.25
2022-10-08T20:49:06.343Z,99713.78
2022-10-08T20:51:33.878Z,99707.13
2022-10-08T20:54:03.354Z,99718.66
2022-10-08T20:56:35.852Z,99714.78
2022-10-08T20:59:06.680Z,99687.06
2022-10-08T21:01:35.842Z,99708.88
2022-10-08T21:04:03.118Z,99698.28
2022-10-08T21:06:42.496Z,99699.84
2022-10-08T21:09:09.951Z,99692.81
2022-10-08T21:11:37.464Z,99698.94
2022-10-08T21:14:05.875Z,99685.94
2022-10-08T21:16:35.837Z,99688.19
2022-10-08T21:19:05.699Z,99690.44
2022-10-08T21:21:34.471Z,99683.28
2022-10-08T21:24:01.392Z,99684.72
2022-10-08T21:26:37.227Z,99686.56
2022-10-08T21:29:10.245Z,99673.75
2022-10-08T21:31:39.444Z,99686.78
2022-10-08T21:34:06.928Z,99671.81
2022-10-08T21:36:39.341Z,99681.69
2022-10-08T21:39:07.729Z,99688.41
2022-10-08T21:41:36.724Z,99656.63
2022-10-08T21:44:06.823Z,99676.28
2022-10-08T21:46:37.283Z,99684.34
2022-10-08T21:49:10.945Z,99672.63
2022-10-08T21:51:38.042Z,99668.16
2022-10-08T21:54:06.491Z,99671.41
2022-10-08T21:56:36.310Z,99664.91
2022-10-08T21:59:05.247Z,99662.16
2022-10-08T22:01:48.561Z,99662.66
2022-10-08T22:04:17.386Z,99659.09
2022-10-08T22:06:49.991Z,99646.25
2022-10-08T22:09:29.578Z,99659.09
2022-10-08T22:11:58.126Z,99650.13
2022-10-08T22:14:25.805Z,99651.84
2022-10-08T22:16:52.819Z,99644.22
2022-10-08T22:19:19.803Z,99657.34
2022-10-08T22:21:46.967Z,99654.91
2022-10-08T22:24:13.957Z,99648.91
2022-10-08T22:26:43.940Z,99645.44
2022-10-08T22:29:10.894Z,99652.56
2022-10-08T22:31:38.614Z,99654.19
2022-10-08T22:34:06.165Z,99652.25
2022-10-08T22:36:36.567Z,99649.81
2022-10-08T22:39:03.469Z,99644.41
2022-10-08T22:41:32.506Z,99649.41
2022-10-08T22:44:00.293Z,99649.09
2022-10-08T22:46:35.062Z,99665.81
2022-10-08T22:49:05.811Z,99653.19
2022-10-08T22:51:32.693Z,99638.91
2022-10-08T22:53:59.820Z,99643.59
2022-10-08T22:56:29.793Z,99644.22
2022-10-08T22:58:58.745Z,99636.41
2022-10-08T23:01:27.423Z,99651.28
2022-10-08T23:03:54.679Z,99655.16
2022-10-08T23:06:24.442Z,99649.75
2022-10-08T23:08:56.758Z,99652.66
2022-10-08T23:11:24.213Z,99651.31
2022-10-08T23:13:52.961Z,99655.13
2022-10-08T23:16:20.385Z,99655.41
2022-10-08T23:18:55.963Z,99659.28
2022-10-08T23:21:23.572Z,99663.25
2022-10-08T23:23:51.958Z,99661.00
2022-10-08T23:26:19.039Z,99663.53
2022-10-08T23:28:50.481Z,99675.53
2022-10-08T23:31:20.428Z,99657.00
2022-10-08T23:33:49.081Z,99652.69
2022-10-08T23:36:40.424Z,99660.94
2022-10-08T23:39:09.473Z,99650.72
2022-10-08T23:41:37.552Z,99651.44
2022-10-08T23:44:05.617Z,99641.97
2022-10-08T23:46:32.858Z,99652.44
2022-10-08T23:49:00.016Z,99650.06
2022-10-08T23:51:28.583Z,99651.69
2022-10-08T23:53:55.642Z,99643.63
2022-10-08T23:56:22.728Z,99655.94
2022-10-08T23:58:49.618Z,99661.94
